sensor_id;sensor_type;location;lat;lon;timestamp;pressure;altitude;pressure_sealevel;temperature;humidity
50933;BME280;36921;49.006;9.292;2022-10-15T00:00:15;98087.13;;;13.30;100.00
50933;BME280;36921;49.006;9.292;2022-10-15T00:02:40;98093.16;;;13.32;100.00
50933;BME280;36921;49.006;9.292;2022-10-15T00:05:06;98101.31;;;13.44;100.00
50933;BME280;36921;49.006;9.292;2022-10-15T00:07:31;98083.38;;;13.31;100.00
50933;BME280;36921;49.006;9.292;2022-10-15T00:09:56;98095.75;;;13.39;100.00
50933;BME280;36921;49.006;9.292;2022-10-15T00:12:22;98098.59;;;13.44;100.00
50933;BME280;36921;49.006;9.292;2022-10-15T00:14:47;98087.13;;;13.30;100.00
50933;BME280;36921;49.006;9.292;2022-10-15T00:17:12;98078.88;;;13.37;100.00
50933;BME280;36921;49.006;9.292;2022-10-15T00:19:38;98089.97;;;13.35;100.00
50933;BME280;36921;49.006;9.292;2022-10-15T00:22:03;98082.88;;;13.34;100.00
50933;BME280;36921;49.006;9.292;2022-10-15T00:24:28;98063.63;;;13.24;100.00
50933;BME280;36921;49.006;9.292;2022-10-15T00:26:54;98087.50;;;13.34;100.00
50933;BME280;36921;49.006;9.292;2022-10-15T00:29:19;98095.03;;;13.44;100.00
50933;BME280;36921;49.006;9.292;2022-10-15T00:31:44;98061.72;;;13.25;100.00
50933;BME280;36921;49.006;9.292;2022-10-15T00:34:10;98078.97;;;13.30;100.00
50933;BME280;36921;49.006;9.292;2022-10-15T00:36:35;98080.88;;;13.42;100.00
50933;BME280;36921;49.006;9.292;2022-10-15T00:39:02;98062.47;;;13.32;100.00
50933;BME280;36921;49.006;9.292;2022-10-15T00:41:39;98093.50;;;13.48;100.00
50933;BME280;36921;49.006;9.292;2022-10-15T00:47:01;98088.28;;;13.46;100.00
50933;BME280;36921;49.006;9.292;2022-10-15T00:49:36;98089.38;;;13.45;100.00
50933;BME280;36921;49.006;9.292;2022-10-15T00:52:18;98090.78;;;13.48;100.00
50933;BME280;36921;49.006;9.292;2022-10-15T00:54:47;98057.72;;;13.39;100.00
50933;BME280;36921;49.006;9.292;2022-10-15T00:57:15;98024.41;;;13.20;100.00
50933;BME280;36921;49.006;9.292;2022-10-15T00:59:47;98077.78;;;13.50;100.00
50933;BME280;36921;49.006;9.292;2022-10-15T01:02:13;98080.50;;;13.50;100.00
50933;BME280;36921;49.006;9.292;2022-10-15T01:04:41;98058.88;;;13.43;100.00
50933;BME280;36921;49.006;9.292;2022-10-15T01:07:06;98068.06;;;13.54;100.00
50933;BME280;36921;49.006;9.292;2022-10-15T01:09:32;98059.97;;;13.42;100.00
50933;BME280;36921;49.006;9.292;2022-10-15T01:11:57;98048.94;;;13.49;100.00
50933;BME280;36921;49.006;9.292;2022-10-15T01:14:48;98062.63;;;13.54;100.00
50933;BME280;36921;49.006;9.292;2022-10-15T01:17:46;98059.91;;;13.54;100.00
50933;BME280;36921;49.006;9.292;2022-10-15T01:28:47;98063.44;;;13.54;100.00
50933;BME280;36921;49.006;9.292;2022-10-15T01:31:30;98068.16;;;13.59;100.00
50933;BME280;36921;49.006;9.292;2022-10-15T01:34:24;98053.16;;;13.56;100.00
50933;BME280;36921;49.006;9.292;2022-10-15T01:36:58;98061.59;;;13.55;100.00
50933;BME280;36921;49.006;9.292;2022-10-15T01:39:31;98064.31;;;13.55;100.00
50933;BME280;36921;49.006;9.292;2022-10-15T01:42:03;98042.69;;;13.48;100.00
50933;BME280;36921;49.006;9.292;2022-10-15T01:44:39;98053.75;;;13.58;100.00
50933;BME280;36921;49.006;9.292;2022-10-15T01:47:13;98056.25;;;13.60;100.00
50933;BME280;36921;49.006;9.292;2022-10-15T01:49:43;98043.22;;;13.62;100.00
50933;BME280;36921;49.006;9.292;2022-10-15T01:52:15;98038.63;;;13.63;100.00
50933;BME280;36921;49.006;9.292;2022-10-15T01:54:45;98049.25;;;13.64;100.00
50933;BME280;36921;49.006;9.292;2022-10-15T01:57:12;98028.13;;;13.54;100.00
50933;BME280;36921;49.006;9.292;2022-10-15T01:59:40;98037.69;;;13.57;100.00
50933;BME280;36921;49.006;9.292;2022-10-15T02:02:07;98017.25;;;13.54;100.00
50933;BME280;36921;49.006;9.292;2022-10-15T02:04:32;98022.13;;;13.52;100.00
50933;BME280;36921;49.006;9.292;2022-10-15T02:07:05;98046.88;;;13.68;100.00
50933;BME280;36921;49.006;9.292;2022-10-15T02:09:56;98036.84;;;13.68;100.00
50933;BME280;36921;49.006;9.292;2022-10-15T02:12:45;98029.28;;;13.70;100.00
50933;BME280;36921;49.006;9.292;2022-10-15T02:15:45;98038.84;;;13.73;100.00
50933;BME280;36921;49.006;9.292;2022-10-15T02:18:22;98023.63;;;13.60;100.00
50933;BME280;36921;49.006;9.292;2022-10-15T02:20:57;98028.69;;;13.68;100.00
50933;BME280;36921;49.006;9.292;2022-10-15T02:23:35;98036.34;;;13.71;100.00
50933;BME280;36921;49.006;9.292;2022-10-15T02:26:04;98041.19;;;13.69;100.00
50933;BME280;36921;49.006;9.292;2022-10-15T02:28:32;98037.97;;;13.72;100.00
50933;BME280;36921;49.006;9.292;2022-10-15T02:31:00;98035.16;;;13.67;100.00
50933;BME280;36921;49.006;9.292;2022-10-15T02:33:28;98040.16;;;13.70;100.00
50933;BME280;36921;49.006;9.292;2022-10-15T02:35:55;98043.41;;;13.72;100.00
50933;BME280;36921;49.006;9.292;2022-10-15T02:38:23;98036.84;;;13.68;100.00
50933;BME280;36921;49.006;9.292;2022-10-15T02:40:49;98039.66;;;13.73;100.00
50933;BME280;36921;49.006;9.292;2022-10-15T02:43:18;98053.34;;;13.78;100.00
50933;BME280;36921;49.006;9.292;2022-10-15T02:45:44;98058.19;;;13.76;100.00
50933;BME280;36921;49.006;9.292;2022-10-15T02:48:09;98053.34;;;13.78;100.00
50933;BME280;36921;49.006;9.292;2022-10-15T02:50:35;98051.19;;;13.80;100.00
50933;BME280;36921;49.006;9.292;2022-10-15T02:53:00;98030.41;;;13.74;100.00
50933;BME280;36921;49.006;9.292;2022-10-15T02:55:25;98031.41;;;13.68;100.00
50933;BME280;36921;49.006;9.292;2022-10-15T02:57:51;98033.97;;;13.75;100.00
50933;BME280;36921;49.006;9.292;2022-10-15T03:00:16;98050.13;;;13.81;100.00
50933;BME280;36921;49.006;9.292;2022-10-15T03:02:43;98032.44;;;13.67;100.00
50933;BME280;36921;49.006;9.292;2022-10-15T03:05:08;98045.19;;;13.78;100.00
50933;BME280;36921;49.006;9.292;2022-10-15T03:07:33;98047.91;;;13.78;100.00
50933;BME280;36921;49.006;9.292;2022-10-15T03:09:58;98037.53;;;13.75;100.00
50933;BME280;36921;49.006;9.292;2022-10-15T03:12:24;98063.56;;;13.88;100.00
50933;BME280;36921;49.006;9.292;2022-10-15T03:14:50;98042.97;;;13.75;100.00
50933;BME280;36921;49.006;9.292;2022-10-15T03:17:15;98054.50;;;13.82;100.00
50933;BME280;36921;49.006;9.292;2022-10-15T03:19:41;98051.78;;;13.82;100.00
50933;BME280;36921;49.006;9.292;2022-10-15T03:22:06;98069.00;;;13.88;100.00
50933;BME280;36921;49.006;9.292;2022-10-15T03:24:31;98052.03;;;13.81;100.00
50933;BME280;36921;49.006;9.292;2022-10-15T03:26:57;98044.94;;;13.80;100.00
50933;BME280;36921;49.006;9.292;2022-10-15T03:29:22;98063.94;;;13.92;100.00
50933;BME280;36921;49.006;9.292;2022-10-15T03:31:48;98068.88;;;13.95;100.00
50933;BME280;36921;49.006;9.292;2022-10-15T03:34:13;98064.25;;;13.95;100.00
50933;BME280;36921;49.006;9.292;2022-10-15T03:36:38;98045.63;;;13.87;100.00
50933;BME280;36921;49.006;9.292;2022-10-15T03:39:04;98070.13;;;14.04;100.00
50933;BME280;36921;49.006;9.292;2022-10-15T03:41:30;98060.09;;;14.05;100.00
50933;BME280;36921;49.006;9.292;2022-10-15T03:44:00;98067.75;;;14.08;100.00
50933;BME280;36921;49.006;9.292;2022-10-15T03:46:25;98071.78;;;14.05;100.00
50933;BME280;36921;49.006;9.292;2022-10-15T03:48:51;98061.97;;;14.04;100.00
50933;BME280;36921;49.006;9.292;2022-10-15T03:51:16;98076.31;;;13.99;100.00
50933;BME280;36921;49.006;9.292;2022-10-15T03:53:41;98064.59;;;13.99;100.00
50933;BME280;36921;49.006;9.292;2022-10-15T03:56:07;98082.78;;;14.10;100.00
50933;BME280;36921;49.006;9.292;2022-10-15T03:58:32;98074.66;;;13.98;100.00
50933;BME280;36921;49.006;9.292;2022-10-15T04:00:57;98080.63;;;14.12;100.00
50933;BME280;36921;49.006;9.292;2022-10-15T04:03:23;98066.69;;;14.09;100.00
50933;BME280;36921;49.006;9.292;2022-10-15T04:05:52;98086.16;;;14.17;100.00
50933;BME280;36921;49.006;9.292;2022-10-15T04:08:18;98085.09;;;14.18;100.00
50933;BME280;36921;49.006;9.292;2022-10-15T04:10:43;98080.16;;;14.15;100.00
50933;BME280;36921;49.006;9.292;2022-10-15T04:13:08;98053.25;;;14.02;100.00
50933;BME280;36921;49.006;9.292;2022-10-15T04:15:34;98078.16;;;14.11;100.00
50933;BME280;36921;49.006;9.292;2022-10-15T04:17:59;98078.47;;;14.14;100.00
50933;BME280;36921;49.006;9.292;2022-10-15T04:20:24;98079.88;;;14.17;100.00
50933;BME280;36921;49.006;9.292;2022-10-15T04:22:50;98082.09;;;14.20;100.00
50933;BME280;36921;49.006;9.292;2022-10-15T04:25:15;98097.22;;;14.28;100.00
50933;BME280;36921;49.006;9.292;2022-10-15T04:27:41;98086.72;;;14.19;100.00
50933;BME280;36921;49.006;9.292;2022-10-15T04:30:07;98094.03;;;14.31;100.00
50933;BME280;36921;49.006;9.292;2022-10-15T04:32:33;98098.63;;;14.30;100.00
50933;BME280;36921;49.006;9.292;2022-10-15T04:34:58;98109.84;;;14.34;100.00
50933;BME280;36921;49.006;9.292;2022-10-15T04:37:23;98088.22;;;14.27;100.00
50933;BME280;36921;49.006;9.292;2022-10-15T04:39:49;98094.75;;;14.26;100.00
50933;BME280;36921;49.006;9.292;2022-10-15T04:42:14;98098.97;;;14.34;100.00
50933;BME280;36921;49.006;9.292;2022-10-15T04:44:39;98099.72;;;14.46;100.00
50933;BME280;36921;49.006;9.292;2022-10-15T04:47:05;98074.41;;;14.29;100.00
50933;BME280;36921;49.006;9.292;2022-10-15T04:49:30;98107.56;;;14.42;100.00
50933;BME280;36921;49.006;9.292;2022-10-15T04:51:55;98107.66;;;14.47;100.00
50933;BME280;36921;49.006;9.292;2022-10-15T04:54:21;98107.41;;;14.49;100.00
50933;BME280;36921;49.006;9.292;2022-10-15T04:56:46;98098.81;;;14.40;100.00
50933;BME280;36921;49.006;9.292;2022-10-15T04:59:11;98122.78;;;14.55;100.00
50933;BME280;36921;49.006;9.292;2022-10-15T05:01:37;98110.50;;;14.53;100.00
50933;BME280;36921;49.006;9.292;2022-10-15T05:04:02;98106.09;;;14.52;100.00
50933;BME280;36921;49.006;9.292;2022-10-15T05:06:28;98108.94;;;14.57;100.00
50933;BME280;36921;49.006;9.292;2022-10-15T05:08:53;98120.16;;;14.60;100.00
50933;BME280;36921;49.006;9.292;2022-10-15T05:11:20;98115.84;;;14.64;100.00
50933;BME280;36921;49.006;9.292;2022-10-15T05:13:46;98102.41;;;14.58;100.00
50933;BME280;36921;49.006;9.292;2022-10-15T05:16:19;98121.88;;;14.66;100.00
50933;BME280;36921;49.006;9.292;2022-10-15T05:18:46;98126.28;;;14.67;100.00
50933;BME280;36921;49.006;9.292;2022-10-15T05:21:13;98120.81;;;14.67;100.00
50933;BME280;36921;49.006;9.292;2022-10-15T05:23:39;98124.94;;;14.70;100.00
50933;BME280;36921;49.006;9.292;2022-10-15T05:26:11;98106.22;;;14.57;100.00
50933;BME280;36921;49.006;9.292;2022-10-15T05:28:37;98121.22;;;14.59;100.00
50933;BME280;36921;49.006;9.292;2022-10-15T05:31:04;98122.88;;;14.60;100.00
50933;BME280;36921;49.006;9.292;2022-10-15T05:33:30;98139.28;;;14.65;100.00
50933;BME280;36921;49.006;9.292;2022-10-15T05:35:55;98138.13;;;14.61;100.00
50933;BME280;36921;49.006;9.292;2022-10-15T05:38:20;98128.69;;;14.52;100.00
50933;BME280;36921;49.006;9.292;2022-10-15T05:40:48;98138.91;;;14.45;100.00
50933;BME280;36921;49.006;9.292;2022-10-15T05:43:14;98144.19;;;14.52;100.00
50933;BME280;36921;49.006;9.292;2022-10-15T05:45:40;98143.03;;;14.47;100.00
50933;BME280;36921;49.006;9.292;2022-10-15T05:48:05;98167.16;;;14.56;100.00
50933;BME280;36921;49.006;9.292;2022-10-15T05:50:31;98175.50;;;14.66;100.00
50933;BME280;36921;49.006;9.292;2022-10-15T05:52:56;98155.56;;;14.48;100.00
50933;BME280;36921;49.006;9.292;2022-10-15T05:55:22;98174.91;;;14.64;100.00
50933;BME280;36921;49.006;9.292;2022-10-15T05:57:47;98169.97;;;14.61;100.00
50933;BME280;36921;49.006;9.292;2022-10-15T06:00:13;98178.41;;;14.59;100.00
50933;BME280;36921;49.006;9.292;2022-10-15T06:02:39;98187.03;;;14.56;100.00
50933;BME280;36921;49.006;9.292;2022-10-15T06:05:05;98177.81;;;14.57;100.00
50933;BME280;36921;49.006;9.292;2022-10-15T06:07:31;98182.19;;;14.58;100.00
50933;BME280;36921;49.006;9.292;2022-10-15T06:09:56;98188.13;;;14.55;100.00
50933;BME280;36921;49.006;9.292;2022-10-15T06:12:22;98186.56;;;14.59;100.00
50933;BME280;36921;49.006;9.292;2022-10-15T06:14:47;98190.59;;;14.57;100.00
50933;BME280;36921;49.006;9.292;2022-10-15T06:17:12;98183.00;;;14.59;100.00
50933;BME280;36921;49.006;9.292;2022-10-15T06:19:38;98191.50;;;14.62;100.00
50933;BME280;36921;49.006;9.292;2022-10-15T06:22:03;98190.44;;;14.63;100.00
50933;BME280;36921;49.006;9.292;2022-10-15T06:24:29;98203.31;;;14.68;100.00
50933;BME280;36921;49.006;9.292;2022-10-15T06:26:54;98202.50;;;14.67;100.00
50933;BME280;36921;49.006;9.292;2022-10-15T06:29:19;98207.69;;;14.69;100.00
50933;BME280;36921;49.006;9.292;2022-10-15T06:31:45;98201.09;;;14.65;100.00
50933;BME280;36921;49.006;9.292;2022-10-15T06:34:10;98204.63;;;14.65;100.00
50933;BME280;36921;49.006;9.292;2022-10-15T06:36:36;98218.34;;;14.71;100.00
50933;BME280;36921;49.006;9.292;2022-10-15T06:39:02;98226.50;;;14.71;100.00
50933;BME280;36921;49.006;9.292;2022-10-15T06:41:27;98228.25;;;14.77;100.00
50933;BME280;36921;49.006;9.292;2022-10-15T06:43:53;98229.34;;;14.76;100.00
50933;BME280;36921;49.006;9.292;2022-10-15T06:46:18;98231.56;;;14.79;100.00
50933;BME280;36921;49.006;9.292;2022-10-15T06:48:44;98215.34;;;14.72;100.00
50933;BME280;36921;49.006;9.292;2022-10-15T06:51:10;98233.19;;;14.80;100.00
50933;BME280;36921;49.006;9.292;2022-10-15T06:53:35;98248.72;;;14.79;100.00
50933;BME280;36921;49.006;9.292;2022-10-15T06:56:02;98243.63;;;14.83;100.00
50933;BME280;36921;49.006;9.292;2022-10-15T06:58:28;98249.22;;;14.76;100.00
50933;BME280;36921;49.006;9.292;2022-10-15T07:01:04;98250.72;;;14.84;100.00
50933;BME280;36921;49.006;9.292;2022-10-15T07:03:30;98252.53;;;14.78;100.00
50933;BME280;36921;49.006;9.292;2022-10-15T07:05:56;98261.28;;;14.80;100.00
50933;BME280;36921;49.006;9.292;2022-10-15T07:08:25;98263.03;;;14.86;100.00
50933;BME280;36921;49.006;9.292;2022-10-15T07:10:50;98258.41;;;14.87;100.00
50933;BME280;36921;49.006;9.292;2022-10-15T07:13:16;98270.50;;;14.79;100.00
50933;BME280;36921;49.006;9.292;2022-10-15T07:15:41;98272.00;;;14.87;100.00
50933;BME280;36921;49.006;9.292;2022-10-15T07:18:08;98272.75;;;14.82;100.00
50933;BME280;36921;49.006;9.292;2022-10-15T07:20:34;98274.72;;;14.87;100.00
50933;BME280;36921;49.006;9.292;2022-10-15T07:23:01;98278.44;;;14.81;100.00
50933;BME280;36921;49.006;9.292;2022-10-15T07:25:27;98289.44;;;14.86;100.00
50933;BME280;36921;49.006;9.292;2022-10-15T07:27:53;98296.44;;;14.82;100.00
50933;BME280;36921;49.006;9.292;2022-10-15T07:30:25;98290.34;;;14.92;100.00
50933;BME280;36921;49.006;9.292;2022-10-15T07:32:58;98287.97;;;14.95;100.00
50933;BME280;36921;49.006;9.292;2022-10-15T07:35:31;98278.75;;;15.13;100.00
50933;BME280;36921;49.006;9.292;2022-10-15T07:37:59;98279.09;;;15.33;100.00
50933;BME280;36921;49.006;9.292;2022-10-15T07:40:26;98270.44;;;15.37;100.00
50933;BME280;36921;49.006;9.292;2022-10-15T07:42:52;98284.28;;;15.35;100.00
50933;BME280;36921;49.006;9.292;2022-10-15T07:45:18;98284.28;;;15.35;100.00
50933;BME280;36921;49.006;9.292;2022-10-15T07:47:43;98275.66;;;15.38;100.00
50933;BME280;36921;49.006;9.292;2022-10-15T07:50:09;98296.88;;;15.36;100.00
50933;BME280;36921;49.006;9.292;2022-10-15T07:52:34;98300.00;;;15.28;100.00
50933;BME280;36921;49.006;9.292;2022-10-15T07:55:00;98300.50;;;15.42;100.00
50933;BME280;36921;49.006;9.292;2022-10-15T07:57:25;98299.50;;;15.31;100.00
50933;BME280;36921;49.006;9.292;2022-10-15T07:59:51;98313.03;;;15.43;100.00
50933;BME280;36921;49.006;9.292;2022-10-15T08:02:17;98303.94;;;15.37;100.00
50933;BME280;36921;49.006;9.292;2022-10-15T08:04:42;98302.81;;;15.50;100.00
50933;BME280;36921;49.006;9.292;2022-10-15T08:07:08;98312.06;;;15.66;100.00
50933;BME280;36921;49.006;9.292;2022-10-15T08:09:33;98308.63;;;15.70;100.00
50933;BME280;36921;49.006;9.292;2022-10-15T08:11:59;98310.69;;;15.80;100.00
50933;BME280;36921;49.006;9.292;2022-10-15T08:14:24;98304.72;;;15.83;100.00
50933;BME280;36921;49.006;9.292;2022-10-15T08:16:50;98314.41;;;15.91;100.00
50933;BME280;36921;49.006;9.292;2022-10-15T08:19:16;98303.13;;;16.04;100.00
50933;BME280;36921;49.006;9.292;2022-10-15T08:21:43;98299.66;;;16.09;100.00
50933;BME280;36921;49.006;9.292;2022-10-15T08:24:08;98309.75;;;15.91;100.00
50933;BME280;36921;49.006;9.292;2022-10-15T08:26:34;98301.28;;;15.88;100.00
50933;BME280;36921;49.006;9.292;2022-10-15T08:29:00;98304.16;;;15.81;100.00
50933;BME280;36921;49.006;9.292;2022-10-15T08:31:25;98306.66;;;15.83;100.00
50933;BME280;36921;49.006;9.292;2022-10-15T08:33:51;98308.59;;;15.87;100.00
50933;BME280;36921;49.006;9.292;2022-10-15T08:36:17;98305.28;;;16.02;100.00
50933;BME280;36921;49.006;9.292;2022-10-15T08:38:43;98313.97;;;15.82;100.00
50933;BME280;36921;49.006;9.292;2022-10-15T08:41:52;98314.66;;;15.72;100.00
50933;BME280;36921;49.006;9.292;2022-10-15T08:44:24;98322.16;;;15.82;100.00
50933;BME280;36921;49.006;9.292;2022-10-15T08:46:54;98321.84;;;15.78;100.00
50933;BME280;36921;49.006;9.292;2022-10-15T08:49:44;98325.91;;;15.76;100.00
50933;BME280;36921;49.006;9.292;2022-10-15T08:52:55;98320.16;;;15.61;100.00
50933;BME280;36921;49.006;9.292;2022-10-15T08:55:01;98325.34;;;15.45;100.00
50933;BME280;36921;49.006;9.292;2022-10-15T09:00:18;98331.28;;;15.25;100.00
50933;BME280;36921;49.006;9.292;2022-10-15T09:02:59;98333.84;;;15.15;100.00
50933;BME280;36921;49.006;9.292;2022-10-15T09:05:48;98330.13;;;15.21;100.00
50933;BME280;36921;49.006;9.292;2022-10-15T09:08:34;98334.66;;;15.32;100.00
50933;BME280;36921;49.006;9.292;2022-10-15T09:11:14;98337.84;;;15.41;100.00
50933;BME280;36921;49.006;9.292;2022-10-15T09:13:45;98329.47;;;15.48;100.00
50933;BME280;36921;49.006;9.292;2022-10-15T09:16:26;98329.75;;;15.63;100.00
50933;BME280;36921;49.006;9.292;2022-10-15T09:18:54;98332.78;;;15.50;100.00
50933;BME280;36921;49.006;9.292;2022-10-15T09:21:23;98332.72;;;15.45;100.00
50933;BME280;36921;49.006;9.292;2022-10-15T09:23:50;98337.25;;;15.56;100.00
50933;BME280;36921;49.006;9.292;2022-10-15T09:26:26;98339.34;;;15.66;100.00
50933;BME280;36921;49.006;9.292;2022-10-15T09:29:05;98339.19;;;15.89;100.00
50933;BME280;36921;49.006;9.292;2022-10-15T09:31:49;98336.31;;;15.79;100.00
50933;BME280;36921;49.006;9.292;2022-10-15T09:34:24;98333.66;;;15.84;100.00
50933;BME280;36921;49.006;9.292;2022-10-15T09:36:58;98333.66;;;15.84;100.00
50933;BME280;36921;49.006;9.292;2022-10-15T09:39:52;98340.19;;;15.83;100.00
50933;BME280;36921;49.006;9.292;2022-10-15T09:44:51;98348.69;;;15.87;100.00
50933;BME280;36921;49.006;9.292;2022-10-15T09:47:25;98347.66;;;15.88;100.00
50933;BME280;36921;49.006;9.292;2022-10-15T09:49:51;98347.94;;;15.74;100.00
50933;BME280;36921;49.006;9.292;2022-10-15T09:57:41;98348.13;;;15.85;100.00
50933;BME280;36921;49.006;9.292;2022-10-15T10:00:12;98346.31;;;15.73;100.00
50933;BME280;36921;49.006;9.292;2022-10-15T10:02:39;98356.88;;;15.87;100.00
50933;BME280;36921;49.006;9.292;2022-10-15T10:07:49;98355.06;;;15.92;100.00
50933;BME280;36921;49.006;9.292;2022-10-15T10:10:26;98363.50;;;15.91;100.00
50933;BME280;36921;49.006;9.292;2022-10-15T10:12:56;98360.84;;;15.79;100.00
50933;BME280;36921;49.006;9.292;2022-10-15T10:15:40;98370.72;;;15.80;100.00
50933;BME280;36921;49.006;9.292;2022-10-15T10:18:17;98356.53;;;16.17;100.00
50933;BME280;36921;49.006;9.292;2022-10-15T10:20:55;98358.34;;;16.50;100.00
50933;BME280;36921;49.006;9.292;2022-10-15T10:23:28;98339.66;;;17.08;100.00
50933;BME280;36921;49.006;9.292;2022-10-15T10:25:57;98329.34;;;18.07;100.00
50933;BME280;36921;49.006;9.292;2022-10-15T10:28:35;98331.00;;;19.23;100.00
50933;BME280;36921;49.006;9.292;2022-10-15T10:31:06;98324.44;;;20.01;100.00
50933;BME280;36921;49.006;9.292;2022-10-15T10:33:43;98320.09;;;20.91;100.00
50933;BME280;36921;49.006;9.292;2022-10-15T10:36:40;98333.41;;;20.58;100.00
50933;BME280;36921;49.006;9.292;2022-10-15T10:39:25;98335.03;;;20.64;100.00
50933;BME280;36921;49.006;9.292;2022-10-15T10:47:02;98355.19;;;19.93;100.00
50933;BME280;36921;49.006;9.292;2022-10-15T10:49:33;98343.38;;;20.13;100.00
50933;BME280;36921;49.006;9.292;2022-10-15T10:51:59;98345.38;;;20.88;100.00
50933;BME280;36921;49.006;9.292;2022-10-15T10:54:26;98314.69;;;20.65;100.00
50933;BME280;36921;49.006;9.292;2022-10-15T10:56:52;98342.25;;;20.34;100.00
50933;BME280;36921;49.006;9.292;2022-10-15T10:59:44;98338.16;;;19.96;100.00
50933;BME280;36921;49.006;9.292;2022-10-15T11:02:12;98329.63;;;20.28;100.00
50933;BME280;36921;49.006;9.292;2022-10-15T11:04:38;98337.09;;;20.93;100.00
50933;BME280;36921;49.006;9.292;2022-10-15T11:07:24;98326.72;;;21.29;100.00
50933;BME280;36921;49.006;9.292;2022-10-15T11:24:03;98312.72;;;23.19;100.00
50933;BME280;36921;49.006;9.292;2022-10-15T11:43:53;98300.44;;;20.48;100.00
50933;BME280;36921;49.006;9.292;2022-10-15T11:49:09;98306.06;;;20.02;100.00
50933;BME280;36921;49.006;9.292;2022-10-15T11:54:39;98311.00;;;19.84;100.00
50933;BME280;36921;49.006;9.292;2022-10-15T11:57:15;98278.59;;;20.02;100.00
50933;BME280;36921;49.006;9.292;2022-10-15T11:59:59;98290.00;;;21.10;100.00
50933;BME280;36921;49.006;9.292;2022-10-15T12:02:34;98266.41;;;21.77;100.00
50933;BME280;36921;49.006;9.292;2022-10-15T12:05:57;98290.25;;;21.53;100.00
50933;BME280;36921;49.006;9.292;2022-10-15T12:08:03;98281.44;;;21.11;100.00
50933;BME280;36921;49.006;9.292;2022-10-15T12:15:40;98282.72;;;19.99;100.00
50933;BME280;36921;49.006;9.292;2022-10-15T12:18:34;98279.19;;;19.68;100.00
50933;BME280;36921;49.006;9.292;2022-10-15T12:21:01;98285.72;;;19.46;100.00
50933;BME280;36921;49.006;9.292;2022-10-15T12:26:01;98284.34;;;19.13;100.00
50933;BME280;36921;49.006;9.292;2022-10-15T12:28:47;98283.25;;;19.24;100.00
50933;BME280;36921;49.006;9.292;2022-10-15T12:31:14;98283.81;;;19.32;100.00
50933;BME280;36921;49.006;9.292;2022-10-15T12:33:47;98289.03;;;19.38;100.00
50933;BME280;36921;49.006;9.292;2022-10-15T12:39:06;98285.22;;;19.65;100.00
50933;BME280;36921;49.006;9.292;2022-10-15T12:41:44;98275.06;;;19.76;100.00
50933;BME280;36921;49.006;9.292;2022-10-15T12:46:46;98276.44;;;19.83;100.00
50933;BME280;36921;49.006;9.292;2022-10-15T12:51:54;98275.91;;;19.71;100.00
50933;BME280;36921;49.006;9.292;2022-10-15T12:59:58;98268.22;;;19.68;100.00
50933;BME280;36921;49.006;9.292;2022-10-15T13:02:39;98263.50;;;19.63;100.00
50933;BME280;36921;49.006;9.292;2022-10-15T13:05:11;98266.25;;;19.27;100.00
50933;BME280;36921;49.006;9.292;2022-10-15T13:07:47;98261.25;;;18.94;100.00
50933;BME280;36921;49.006;9.292;2022-10-15T13:13:01;98268.38;;;18.85;100.00
50933;BME280;36921;49.006;9.292;2022-10-15T13:15:31;98265.63;;;18.79;100.00
50933;BME280;36921;49.006;9.292;2022-10-15T13:17:59;98265.94;;;18.93;100.00
50933;BME280;36921;49.006;9.292;2022-10-15T13:23:27;98274.41;;;18.81;100.00
50933;BME280;36921;49.006;9.292;2022-10-15T13:26:09;98261.19;;;18.68;100.00
50933;BME280;36921;49.006;9.292;2022-10-15T13:28:36;98273.88;;;18.22;100.00
50933;BME280;36921;49.006;9.292;2022-10-15T13:31:06;98279.44;;;18.37;100.00
50933;BME280;36921;49.006;9.292;2022-10-15T13:33:38;98281.09;;;18.43;100.00
50933;BME280;36921;49.006;9.292;2022-10-15T13:36:06;98278.56;;;18.26;100.00
50933;BME280;36921;49.006;9.292;2022-10-15T13:38:32;98277.16;;;18.24;100.00
50933;BME280;36921;49.006;9.292;2022-10-15T13:40:58;98281.53;;;18.25;100.00
50933;BME280;36921;49.006;9.292;2022-10-15T13:43:26;98274.13;;;18.20;100.00
50933;BME280;36921;49.006;9.292;2022-10-15T13:45:56;98272.19;;;18.15;100.00
50933;BME280;36921;49.006;9.292;2022-10-15T13:48:25;98270.59;;;18.25;100.00
50933;BME280;36921;49.006;9.292;2022-10-15T13:50:52;98272.59;;;18.39;100.00
50933;BME280;36921;49.006;9.292;2022-10-15T13:53:31;98274.34;;;18.08;100.00
50933;BME280;36921;49.006;9.292;2022-10-15T13:56:03;98278.28;;;18.28;100.00
50933;BME280;36921;49.006;9.292;2022-10-15T13:58:38;98279.41;;;18.32;100.00
50933;BME280;36921;49.006;9.292;2022-10-15T14:01:12;98263.94;;;18.05;100.00
50933;BME280;36921;49.006;9.292;2022-10-15T14:03:45;98271.13;;;18.22;100.00
50933;BME280;36921;49.006;9.292;2022-10-15T14:06:24;98272.97;;;18.06;100.00
50933;BME280;36921;49.006;9.292;2022-10-15T14:08:52;98279.31;;;18.16;100.00
50933;BME280;36921;49.006;9.292;2022-10-15T14:11:17;98271.69;;;18.24;100.00
50933;BME280;36921;49.006;9.292;2022-10-15T14:13:48;98279.63;;;18.25;100.00
50933;BME280;36921;49.006;9.292;2022-10-15T14:16:19;98270.63;;;18.30;100.00
50933;BME280;36921;49.006;9.292;2022-10-15T14:18:48;98267.63;;;18.36;100.00
50933;BME280;36921;49.006;9.292;2022-10-15T14:21:15;98292.28;;;18.31;100.00
50933;BME280;36921;49.006;9.292;2022-10-15T14:23:43;98290.31;;;18.22;100.00
50933;BME280;36921;49.006;9.292;2022-10-15T14:26:10;98270.94;;;17.91;100.00
50933;BME280;36921;49.006;9.292;2022-10-15T14:28:36;98282.94;;;17.80;100.00
50933;BME280;36921;49.006;9.292;2022-10-15T14:31:03;98280.28;;;17.63;100.00
50933;BME280;36921;49.006;9.292;2022-10-15T14:38:46;98277.81;;;17.24;100.00
50933;BME280;36921;49.006;9.292;2022-10-15T14:41:23;98293.13;;;17.25;100.00